METAR Data
IDs: Format: Raw Decoded Include TAF

Data at: 1727 UTC 30 Oct 2020

PKWA 301720Z AUTO 08014KT 10SM SCT017 27/27 A2977 RMK AO2 T02730268